createdAt,value
2019-03-30T00:02:16.749Z,6.40
2019-03-30T00:04:44.643Z,7.40
2019-03-30T00:07:14.118Z,5.20
2019-03-30T00:09:43.228Z,9.40
2019-03-30T00:12:11.071Z,7.60
2019-03-30T00:14:38.651Z,7.80
2019-03-30T00:17:06.218Z,6.40
2019-03-30T00:19:35.066Z,7.40
2019-03-30T00:22:02.959Z,7.00
2019-03-30T00:24:30.571Z,6.40
2019-03-30T00:27:03.166Z,3.60
2019-03-30T00:29:34.684Z,7.00
2019-03-30T00:32:02.289Z,9.60
2019-03-30T00:34:38.477Z,4.40
2019-03-30T00:37:06.042Z,6.80
2019-03-30T00:39:33.634Z,6.80
2019-03-30T00:42:01.543Z,9.00
2019-03-30T00:44:32.161Z,5.20
2019-03-30T00:46:59.619Z,6.80
2019-03-30T00:49:27.484Z,4.40
2019-03-30T00:51:55.061Z,1.40
2019-03-30T00:54:22.651Z,7.00
2019-03-30T00:56:50.514Z,6.20
2019-03-30T00:59:18.139Z,8.20
2019-03-30T01:01:48.604Z,6.80
2019-03-30T01:04:16.225Z,6.40
2019-03-30T01:06:44.082Z,6.60
2019-03-30T01:09:11.795Z,6.20
2019-03-30T01:11:39.428Z,6.00
2019-03-30T01:14:07.286Z,1.00
2019-03-30T01:16:34.838Z,6.00
2019-03-30T01:19:02.398Z,6.80
2019-03-30T01:21:30.262Z,9.00
2019-03-30T01:23:58.021Z,1.40
2019-03-30T01:26:25.599Z,3.60
2019-03-30T01:28:53.065Z,6.00
2019-03-30T01:31:20.613Z,9.60
2019-03-30T01:33:49.379Z,6.80
2019-03-30T01:36:17.003Z,4.00
2019-03-30T01:38:44.589Z,9.00
2019-03-30T01:41:12.217Z,6.00
2019-03-30T01:43:40.006Z,4.00
2019-03-30T01:46:07.624Z,6.00
2019-03-30T01:48:35.613Z,9.40
2019-03-30T01:51:03.439Z,8.20
2019-03-30T01:53:30.962Z,5.60
2019-03-30T01:55:58.506Z,6.60
2019-03-30T01:58:26.323Z,9.00
2019-03-30T02:00:53.832Z,7.00
2019-03-30T02:03:21.344Z,9.00
2019-03-30T02:05:48.902Z,9.00
2019-03-30T02:08:17.185Z,7.00
2019-03-30T02:10:44.737Z,8.60
2019-03-30T02:13:12.318Z,6.80
2019-03-30T02:15:39.871Z,6.60
2019-03-30T02:18:10.737Z,4.40
2019-03-30T02:20:38.300Z,9.80
2019-03-30T02:23:05.867Z,10.80
2019-03-30T02:25:33.491Z,6.60
2019-03-30T02:28:06.928Z,9.60
2019-03-30T02:30:33.597Z,8.60
2019-03-30T02:33:01.179Z,6.00
2019-03-30T02:35:28.788Z,6.80
2019-03-30T02:37:56.586Z,8.60
2019-03-30T02:40:24.207Z,9.40
2019-03-30T02:42:51.762Z,4.80
2019-03-30T02:45:19.376Z,9.80
2019-03-30T02:47:47.187Z,7.40
2019-03-30T02:50:14.702Z,7.40
2019-03-30T02:52:42.171Z,9.80
2019-03-30T02:55:12.557Z,10.00
2019-03-30T02:57:39.227Z,7.80
2019-03-30T03:00:09.240Z,9.20
2019-03-30T03:02:36.839Z,12.00
2019-03-30T03:05:04.477Z,7.00
2019-03-30T03:07:32.297Z,7.40
2019-03-30T03:09:59.912Z,9.00
2019-03-30T03:12:27.453Z,11.20
2019-03-30T03:14:55.047Z,9.60
2019-03-30T03:17:22.877Z,6.60
2019-03-30T03:19:50.514Z,9.80
2019-03-30T03:22:18.036Z,9.00
2019-03-30T03:24:45.643Z,6.00
2019-03-30T03:27:13.444Z,10.20
2019-03-30T03:29:43.747Z,10.00
2019-03-30T03:32:10.218Z,9.40
2019-03-30T03:34:38.004Z,10.40
2019-03-30T03:37:05.474Z,9.00
2019-03-30T03:39:33.072Z,9.60
2019-03-30T03:42:00.595Z,9.60
2019-03-30T03:44:28.467Z,11.40
2019-03-30T03:46:56.025Z,8.60
2019-03-30T03:49:23.611Z,12.40
2019-03-30T03:51:51.164Z,9.20
2019-03-30T03:54:19.111Z,10.20
2019-03-30T03:56:46.673Z,6.40
2019-03-30T03:59:14.469Z,7.80
2019-03-30T04:01:41.989Z,13.00
2019-03-30T04:04:09.484Z,6.00
2019-03-30T04:06:37.054Z,7.80
2019-03-30T04:09:04.880Z,7.60
2019-03-30T04:11:32.408Z,9.60
2019-03-30T04:14:00.003Z,9.20
2019-03-30T04:16:27.550Z,8.60
2019-03-30T04:18:55.412Z,9.20
2019-03-30T04:21:22.940Z,10.00
2019-03-30T04:23:54.090Z,7.80
2019-03-30T04:26:19.617Z,9.20
2019-03-30T04:28:47.506Z,7.80
2019-03-30T04:31:15.065Z,9.00
2019-03-30T04:33:42.657Z,11.20
2019-03-30T04:36:10.169Z,11.20
2019-03-30T04:38:37.969Z,12.00
2019-03-30T04:41:05.520Z,6.40
2019-03-30T04:43:32.995Z,11.20
2019-03-30T04:46:00.871Z,6.60
2019-03-30T04:48:29.618Z,7.00
2019-03-30T04:50:57.300Z,10.80
2019-03-30T04:53:25.160Z,6.00
2019-03-30T04:55:54.941Z,10.00
2019-03-30T04:58:22.532Z,6.20
2019-03-30T05:00:50.066Z,7.40
2019-03-30T05:03:17.847Z,8.60
2019-03-30T05:05:45.289Z,10.80
2019-03-30T05:08:13.218Z,6.80
2019-03-30T05:10:41.078Z,9.40
2019-03-30T05:13:08.611Z,9.00
2019-03-30T05:15:36.143Z,9.80
2019-03-30T05:18:03.758Z,10.80
2019-03-30T05:20:31.575Z,12.00
2019-03-30T05:22:59.168Z,11.20
2019-03-30T05:25:27.099Z,6.80
2019-03-30T05:27:54.640Z,7.00
2019-03-30T05:30:22.459Z,9.80
2019-03-30T05:33:04.600Z,10.60
2019-03-30T05:35:19.289Z,13.80
2019-03-30T05:37:47.095Z,9.80
2019-03-30T05:40:14.691Z,6.60
2019-03-30T05:42:42.252Z,13.40
2019-03-30T05:45:12.590Z,5.60
2019-03-30T05:47:41.869Z,9.80
2019-03-30T05:50:12.680Z,13.40
2019-03-30T05:52:40.214Z,10.00
2019-03-30T05:55:07.662Z,12.00
2019-03-30T05:57:35.514Z,12.60
2019-03-30T06:00:03.043Z,12.80
2019-03-30T06:02:30.565Z,10.60
2019-03-30T06:04:58.706Z,7.80
2019-03-30T06:07:26.448Z,11.60
2019-03-30T06:09:53.911Z,10.40
2019-03-30T06:12:21.653Z,16.80
2019-03-30T06:14:49.582Z,12.40
2019-03-30T06:17:17.186Z,14.20
2019-03-30T06:19:44.742Z,10.20
2019-03-30T06:22:12.572Z,10.40
2019-03-30T06:24:40.144Z,12.40
2019-03-30T06:27:07.668Z,10.40
2019-03-30T06:29:35.508Z,12.60
2019-03-30T06:32:03.065Z,7.40
2019-03-30T06:34:30.542Z,13.60
2019-03-30T06:36:58.359Z,15.20
2019-03-30T06:39:25.955Z,14.60
2019-03-30T06:41:53.573Z,12.40
2019-03-30T06:44:21.403Z,14.60
2019-03-30T06:46:48.873Z,14.60
2019-03-30T06:49:16.466Z,12.80
2019-03-30T06:51:44.275Z,10.80
2019-03-30T06:54:16.917Z,10.80
2019-03-30T06:56:53.727Z,15.00
2019-03-30T06:59:21.256Z,7.00
2019-03-30T07:01:48.807Z,17.40
2019-03-30T07:04:16.326Z,15.40
2019-03-30T07:06:46.758Z,11.60
2019-03-30T07:09:14.322Z,11.20
2019-03-30T07:11:41.847Z,7.40
2019-03-30T07:14:09.695Z,14.20
2019-03-30T07:16:37.169Z,14.20
2019-03-30T07:19:05.106Z,18.00
2019-03-30T07:21:32.913Z,16.00
2019-03-30T07:24:00.816Z,14.60
2019-03-30T07:26:28.376Z,15.80
2019-03-30T07:28:56.179Z,10.00
2019-03-30T07:31:23.704Z,16.60
2019-03-30T07:33:51.204Z,10.80
2019-03-30T07:36:22.574Z,9.80
2019-03-30T07:38:50.195Z,10.40
2019-03-30T07:41:20.506Z,12.00
2019-03-30T07:43:48.321Z,15.00
2019-03-30T07:46:15.841Z,4.00
2019-03-30T07:48:43.410Z,12.00
2019-03-30T07:51:11.227Z,13.40
2019-03-30T07:53:44.777Z,12.20
2019-03-30T07:56:09.046Z,12.40
2019-03-30T07:58:36.934Z,12.60
2019-03-30T08:01:04.409Z,12.80
2019-03-30T08:03:32.019Z,17.80
2019-03-30T08:06:10.068Z,14.60
2019-03-30T08:08:32.569Z,16.40
2019-03-30T08:11:05.132Z,14.60
2019-03-30T08:13:32.734Z,12.80
2019-03-30T08:16:00.616Z,7.60
2019-03-30T08:18:28.703Z,9.80
2019-03-30T08:20:56.155Z,11.20
2019-03-30T08:23:23.683Z,12.00
2019-03-30T08:25:54.177Z,9.20
2019-03-30T08:28:21.723Z,11.60
2019-03-30T08:30:49.330Z,10.40
2019-03-30T08:33:16.868Z,14.60
2019-03-30T08:35:44.365Z,12.20
2019-03-30T08:38:12.122Z,11.40
2019-03-30T08:40:39.703Z,13.00
2019-03-30T08:43:07.158Z,11.80
2019-03-30T08:45:36.010Z,11.20
2019-03-30T08:48:03.547Z,9.60
2019-03-30T08:50:32.185Z,8.20
2019-03-30T08:53:00.045Z,13.00
2019-03-30T08:55:27.596Z,12.00
2019-03-30T08:57:55.135Z,9.20
2019-03-30T09:00:23.030Z,13.00
2019-03-30T09:02:50.943Z,15.40
2019-03-30T09:05:18.513Z,15.00
2019-03-30T09:07:46.272Z,12.60
2019-03-30T09:10:13.822Z,9.00
2019-03-30T09:12:41.385Z,3.40
2019-03-30T09:15:11.840Z,11.20
2019-03-30T09:17:40.522Z,12.00
2019-03-30T09:20:08.045Z,15.60
2019-03-30T09:22:36.338Z,8.60
2019-03-30T09:25:03.945Z,14.20
2019-03-30T09:27:31.432Z,10.80
2019-03-30T09:30:09.037Z,9.00
2019-03-30T09:32:34.106Z,9.00
2019-03-30T09:35:03.419Z,9.80
2019-03-30T09:37:31.184Z,12.20
2019-03-30T09:39:58.709Z,12.60
2019-03-30T09:42:26.220Z,12.60
2019-03-30T09:44:53.994Z,15.20
2019-03-30T09:47:21.497Z,11.00
2019-03-30T09:49:49.065Z,10.60
2019-03-30T09:52:16.926Z,10.80
2019-03-30T09:54:44.523Z,8.20
2019-03-30T09:57:13.078Z,10.40
2019-03-30T09:59:40.923Z,16.80
2019-03-30T10:02:08.406Z,12.80
2019-03-30T10:04:36.498Z,12.80
2019-03-30T10:07:07.344Z,12.60
2019-03-30T10:09:35.252Z,14.60
2019-03-30T10:12:02.728Z,10.40
2019-03-30T10:14:31.548Z,16.00
2019-03-30T10:16:59.430Z,13.00
2019-03-30T10:19:29.980Z,13.80
2019-03-30T10:21:57.805Z,12.00
2019-03-30T10:24:38.084Z,12.40
2019-03-30T10:26:56.736Z,16.40
2019-03-30T10:29:24.608Z,12.40
2019-03-30T10:31:52.134Z,10.20
2019-03-30T10:34:19.573Z,8.00
2019-03-30T10:36:47.386Z,8.00
2019-03-30T10:39:17.905Z,9.80
2019-03-30T10:41:45.508Z,12.20
2019-03-30T10:44:13.227Z,10.40
2019-03-30T10:46:40.726Z,12.80
2019-03-30T10:49:11.265Z,13.60
2019-03-30T10:51:41.776Z,14.80
2019-03-30T10:54:09.315Z,14.60
2019-03-30T10:56:37.936Z,18.60
2019-03-30T10:59:05.663Z,13.60
2019-03-30T11:01:33.221Z,10.40
2019-03-30T11:04:00.830Z,13.00
2019-03-30T11:06:28.653Z,10.40
2019-03-30T11:08:58.997Z,11.20
2019-03-30T11:11:26.588Z,13.20
2019-03-30T11:13:54.349Z,10.00
2019-03-30T11:16:21.935Z,10.40
2019-03-30T11:18:50.400Z,9.60
2019-03-30T11:21:18.243Z,13.00
2019-03-30T11:23:45.853Z,11.40
2019-03-30T11:26:13.458Z,12.40
2019-03-30T11:28:41.346Z,12.20
2019-03-30T11:31:09.237Z,12.80
2019-03-30T11:33:40.231Z,7.20
2019-03-30T11:36:08.030Z,10.80
2019-03-30T11:38:35.649Z,14.00
2019-03-30T11:41:03.472Z,9.00
2019-03-30T11:43:34.183Z,11.80
2019-03-30T11:46:01.792Z,14.20
2019-03-30T11:48:29.342Z,14.20
2019-03-30T11:51:00.100Z,10.80
2019-03-30T11:53:29.614Z,11.80
2019-03-30T11:55:57.134Z,10.40
2019-03-30T11:58:26.542Z,7.20
2019-03-30T12:00:54.150Z,11.80
2019-03-30T12:03:21.679Z,10.80
2019-03-30T12:05:50.495Z,10.40
2019-03-30T12:08:18.126Z,11.00
2019-03-30T12:10:47.380Z,12.20
2019-03-30T12:13:15.271Z,14.00
2019-03-30T12:15:45.224Z,6.20
2019-03-30T12:18:14.844Z,16.20
2019-03-30T12:20:42.710Z,17.60
2019-03-30T12:23:11.894Z,15.00
2019-03-30T12:25:39.476Z,17.00
2019-03-30T12:28:07.277Z,15.40
2019-03-30T12:30:34.819Z,17.20
2019-03-30T12:33:02.375Z,16.80
2019-03-30T12:35:29.897Z,16.60
2019-03-30T12:37:59.128Z,17.60
2019-03-30T12:40:27.115Z,17.80
2019-03-30T12:42:54.591Z,17.60
2019-03-30T12:45:22.244Z,17.60
2019-03-30T12:47:52.149Z,14.00
2019-03-30T12:50:19.773Z,18.40
2019-03-30T12:52:47.326Z,19.80
2019-03-30T12:55:15.196Z,12.60
2019-03-30T12:57:42.678Z,14.20
2019-03-30T13:00:10.305Z,18.60
2019-03-30T13:02:39.301Z,15.60
2019-03-30T13:05:07.535Z,15.60
2019-03-30T13:07:35.251Z,17.20
2019-03-30T13:10:03.089Z,16.80
2019-03-30T13:12:30.676Z,18.20
2019-03-30T13:15:00.103Z,13.40
2019-03-30T13:17:29.138Z,16.80
2019-03-30T13:19:56.796Z,16.60
2019-03-30T13:22:24.323Z,13.20
2019-03-30T13:24:55.080Z,12.20
2019-03-30T13:27:22.675Z,17.20
2019-03-30T13:29:50.169Z,15.20
2019-03-30T13:32:18.008Z,16.80
2019-03-30T13:34:45.597Z,15.00
2019-03-30T13:37:13.077Z,14.60
2019-03-30T13:39:40.989Z,15.00
2019-03-30T13:42:08.533Z,14.20
2019-03-30T13:44:37.491Z,9.80
2019-03-30T13:47:08.053Z,17.00
2019-03-30T13:49:35.664Z,15.40
2019-03-30T13:52:03.278Z,15.60
2019-03-30T13:54:31.086Z,14.40
2019-03-30T13:56:58.776Z,16.40
2019-03-30T13:59:26.380Z,14.00
2019-03-30T14:01:54.252Z,14.60
2019-03-30T14:04:21.883Z,16.40
2019-03-30T14:06:49.438Z,13.60
2019-03-30T14:09:17.224Z,11.20
2019-03-30T14:11:44.739Z,15.00
2019-03-30T14:14:12.324Z,12.80
2019-03-30T14:16:40.098Z,12.20
2019-03-30T14:19:08.127Z,7.60
2019-03-30T14:21:37.630Z,14.40
2019-03-30T14:24:10.867Z,12.80
2019-03-30T14:26:38.449Z,11.00
2019-03-30T14:29:09.319Z,11.80
2019-03-30T14:31:39.298Z,15.40
2019-03-30T14:34:06.921Z,17.40
2019-03-30T14:36:34.568Z,14.00
2019-03-30T14:39:02.451Z,14.00
2019-03-30T14:41:31.293Z,10.40
2019-03-30T14:43:58.812Z,13.00
2019-03-30T14:46:26.703Z,11.80
2019-03-30T14:48:54.217Z,15.20
2019-03-30T14:51:21.717Z,14.40
2019-03-30T14:53:49.573Z,12.40
2019-03-30T14:56:17.110Z,11.40
2019-03-30T14:58:44.749Z,13.80
2019-03-30T15:01:12.722Z,10.40
2019-03-30T15:03:40.337Z,9.00
2019-03-30T15:06:12.128Z,11.00
2019-03-30T15:08:39.902Z,14.60
2019-03-30T15:11:07.431Z,14.80
2019-03-30T15:13:34.937Z,12.00
2019-03-30T15:16:06.944Z,13.40
2019-03-30T15:18:46.128Z,10.80
2019-03-30T15:21:13.893Z,15.00
2019-03-30T15:23:43.582Z,15.40
2019-03-30T15:26:11.256Z,12.00
2019-03-30T15:28:38.774Z,10.80
2019-03-30T15:31:06.656Z,12.00
2019-03-30T15:33:37.010Z,10.80
2019-03-30T15:36:04.927Z,13.00
2019-03-30T15:38:32.487Z,12.20
2019-03-30T15:41:00.328Z,11.60
2019-03-30T15:43:37.973Z,14.20
2019-03-30T15:45:57.853Z,13.20
2019-03-30T15:48:28.166Z,16.00
2019-03-30T15:50:54.880Z,12.60
2019-03-30T15:53:22.414Z,12.40
2019-03-30T15:55:53.003Z,7.00
2019-03-30T15:58:20.556Z,12.60
2019-03-30T16:00:51.104Z,14.00
2019-03-30T16:03:18.829Z,12.20
2019-03-30T16:05:46.422Z,7.60
2019-03-30T16:08:14.080Z,13.60
2019-03-30T16:10:41.924Z,30.80
2019-03-30T16:13:16.591Z,13.40
2019-03-30T16:15:44.667Z,13.20
2019-03-30T16:18:19.641Z,28.00
2019-03-30T16:20:47.196Z,22.20
2019-03-30T16:23:14.781Z,20.80
2019-03-30T16:25:45.099Z,21.00
2019-03-30T16:28:14.449Z,15.20
2019-03-30T16:30:42.057Z,17.40
2019-03-30T16:33:09.883Z,15.40
2019-03-30T16:35:37.467Z,15.80
2019-03-30T16:38:05.042Z,18.60
2019-03-30T16:40:32.833Z,20.00
2019-03-30T16:43:08.530Z,20.80
2019-03-30T16:45:32.175Z,23.20
2019-03-30T16:47:59.988Z,19.00
2019-03-30T16:50:32.265Z,18.60
2019-03-30T16:53:01.979Z,18.40
2019-03-30T16:55:32.568Z,19.00
2019-03-30T16:58:00.184Z,19.00
2019-03-30T17:00:35.076Z,21.40
2019-03-30T17:03:06.041Z,23.40
2019-03-30T17:05:33.923Z,21.00
2019-03-30T17:08:01.600Z,30.40
2019-03-30T17:10:29.509Z,23.60
2019-03-30T17:12:57.039Z,22.00
2019-03-30T17:15:28.164Z,19.20
2019-03-30T17:17:59.166Z,23.20
2019-03-30T17:20:34.044Z,22.80
2019-03-30T17:23:01.602Z,21.60
2019-03-30T17:25:32.559Z,16.80
2019-03-30T17:28:10.716Z,18.20
2019-03-30T17:30:38.601Z,25.80
2019-03-30T17:33:06.236Z,24.20
2019-03-30T17:35:33.928Z,21.00
2019-03-30T17:38:01.378Z,17.60
2019-03-30T17:40:28.892Z,18.20
2019-03-30T17:42:56.642Z,22.80
2019-03-30T17:45:27.053Z,19.80
2019-03-30T17:47:54.611Z,18.80
2019-03-30T17:50:22.484Z,19.80
2019-03-30T17:52:50.196Z,24.00
2019-03-30T17:55:17.670Z,25.00
2019-03-30T17:57:45.733Z,19.40
2019-03-30T18:00:18.356Z,19.00
2019-03-30T18:02:48.797Z,19.60
2019-03-30T18:05:16.873Z,17.20
2019-03-30T18:07:44.444Z,22.80
2019-03-30T18:10:12.139Z,24.40
2019-03-30T18:12:40.041Z,22.20
2019-03-30T18:15:07.645Z,21.40
2019-03-30T18:17:35.247Z,24.80
2019-03-30T18:20:04.504Z,26.60
2019-03-30T18:22:35.185Z,24.40
2019-03-30T18:25:05.823Z,23.60
2019-03-30T18:27:36.613Z,25.20
2019-03-30T18:30:07.053Z,22.20
2019-03-30T18:32:39.835Z,18.80
2019-03-30T18:35:07.720Z,25.40
2019-03-30T18:37:35.291Z,24.80
2019-03-30T18:40:02.835Z,24.00
2019-03-30T18:42:30.636Z,18.40
2019-03-30T18:44:59.787Z,22.20
2019-03-30T18:47:27.299Z,31.20
2019-03-30T18:49:55.207Z,20.80
2019-03-30T18:52:22.883Z,25.20
2019-03-30T18:54:50.434Z,23.60
2019-03-30T18:57:18.285Z,27.60
2019-03-30T18:59:50.806Z,32.80
2019-03-30T19:02:19.318Z,19.80
2019-03-30T19:04:47.317Z,26.00
2019-03-30T19:07:17.701Z,24.40
2019-03-30T19:09:44.236Z,26.40
2019-03-30T19:12:12.090Z,29.20
2019-03-30T19:14:39.688Z,22.80
2019-03-30T19:17:07.229Z,24.00
2019-03-30T19:19:35.041Z,19.40
2019-03-30T19:22:02.629Z,22.60
2019-03-30T19:24:31.786Z,23.20
2019-03-30T19:27:00.532Z,27.60
2019-03-30T19:29:28.141Z,22.00
2019-03-30T19:31:55.615Z,25.80
2019-03-30T19:34:23.434Z,21.80
2019-03-30T19:36:53.980Z,24.00
2019-03-30T19:39:21.616Z,21.40
2019-03-30T19:41:50.502Z,26.60
2019-03-30T19:44:18.043Z,54.00
2019-03-30T19:46:49.120Z,23.20
2019-03-30T19:49:16.923Z,28.20
2019-03-30T19:51:44.540Z,20.40
2019-03-30T19:54:12.140Z,23.60
2019-03-30T19:56:40.000Z,24.60
2019-03-30T19:59:11.384Z,25.80
2019-03-30T20:01:40.917Z,17.20
2019-03-30T20:04:08.759Z,9.00
2019-03-30T20:06:37.442Z,26.60
2019-03-30T20:09:07.398Z,18.60
2019-03-30T20:11:35.345Z,24.40
2019-03-30T20:14:03.000Z,17.00
2019-03-30T20:16:35.124Z,23.80
2019-03-30T20:19:11.590Z,23.20
2019-03-30T20:21:32.196Z,21.20
2019-03-30T20:23:59.801Z,23.60
2019-03-30T20:26:28.662Z,24.40
2019-03-30T20:28:56.230Z,20.80
2019-03-30T20:31:23.789Z,17.40
2019-03-30T20:33:51.709Z,22.40
2019-03-30T20:36:19.270Z,22.80
2019-03-30T20:38:49.853Z,21.80
2019-03-30T20:41:17.734Z,21.60
2019-03-30T20:43:45.364Z,25.80
2019-03-30T20:46:18.811Z,20.20
2019-03-30T20:48:46.599Z,19.40
2019-03-30T20:51:14.089Z,18.80
2019-03-30T20:53:41.724Z,23.20
2019-03-30T20:56:10.412Z,23.20
2019-03-30T20:58:43.461Z,27.40
2019-03-30T21:01:11.013Z,24.60
2019-03-30T21:03:38.818Z,26.60
2019-03-30T21:06:06.437Z,22.00
2019-03-30T21:08:33.981Z,21.40
2019-03-30T21:11:04.048Z,21.40
2019-03-30T21:13:31.620Z,21.00
2019-03-30T21:15:59.114Z,21.80
2019-03-30T21:18:27.013Z,26.20
2019-03-30T21:20:54.616Z,21.80
2019-03-30T21:23:22.178Z,20.20
2019-03-30T21:25:59.329Z,22.60
2019-03-30T21:28:26.831Z,27.00
2019-03-30T21:30:54.445Z,26.80
2019-03-30T21:33:22.296Z,29.60
2019-03-30T21:35:58.340Z,28.00
2019-03-30T21:38:27.042Z,23.20
2019-03-30T21:40:54.590Z,25.00
2019-03-30T21:43:22.044Z,24.00
2019-03-30T21:45:50.587Z,24.20
2019-03-30T21:48:18.161Z,22.80
2019-03-30T21:50:45.922Z,25.80
2019-03-30T21:53:15.815Z,21.20
2019-03-30T21:55:45.880Z,26.20
2019-03-30T21:58:13.436Z,23.40
2019-03-30T22:00:41.328Z,18.40
2019-03-30T22:03:08.889Z,27.40
2019-03-30T22:05:36.441Z,27.20
2019-03-30T22:08:04.318Z,27.20
2019-03-30T22:10:34.131Z,17.40
2019-03-30T22:13:01.785Z,20.20
2019-03-30T22:15:29.524Z,19.00
2019-03-30T22:17:57.041Z,18.60
2019-03-30T22:20:24.524Z,24.80
2019-03-30T22:22:52.404Z,23.80
2019-03-30T22:25:19.938Z,19.80
2019-03-30T22:27:49.474Z,23.80
2019-03-30T22:30:24.700Z,16.60
2019-03-30T22:32:46.568Z,22.80
2019-03-30T22:35:15.740Z,17.40
2019-03-30T22:37:43.545Z,13.40
2019-03-30T22:40:11.162Z,21.60
2019-03-30T22:42:38.713Z,20.60
2019-03-30T22:45:06.522Z,20.40
2019-03-30T22:47:35.413Z,13.80
2019-03-30T22:50:08.993Z,21.40
2019-03-30T22:52:37.877Z,21.60
2019-03-30T22:55:05.443Z,23.20
2019-03-30T22:57:34.024Z,20.20
2019-03-30T23:00:01.744Z,21.40
2019-03-30T23:02:29.368Z,21.40
2019-03-30T23:04:58.876Z,20.20
2019-03-30T23:07:26.414Z,22.80
2019-03-30T23:09:53.865Z,24.20
2019-03-30T23:12:21.406Z,21.20
2019-03-30T23:14:49.224Z,21.80
2019-03-30T23:17:16.833Z,20.20
2019-03-30T23:19:44.362Z,21.60
2019-03-30T23:22:15.282Z,21.40
2019-03-30T23:24:42.801Z,21.40
2019-03-30T23:27:13.459Z,16.40
2019-03-30T23:29:41.254Z,21.40
2019-03-30T23:32:08.754Z,22.00
2019-03-30T23:34:36.363Z,21.60
2019-03-30T23:37:04.237Z,20.60
2019-03-30T23:39:34.791Z,22.00
2019-03-30T23:42:04.017Z,24.00
2019-03-30T23:44:34.400Z,22.80
2019-03-30T23:47:02.173Z,19.40
2019-03-30T23:49:29.656Z,24.40
2019-03-30T23:51:57.506Z,20.20
2019-03-30T23:54:25.528Z,22.00
2019-03-30T23:56:53.119Z,19.80
2019-03-30T23:59:23.698Z,26.40
